sensor_id;sensor_type;location;lat;lon;timestamp;pressure;altitude;pressure_sealevel;temperature;humidity
53932;BME280;39844;52.496;13.482;2022-10-23T00:01:14;101457.19;;;13.58;100.00
53932;BME280;39844;52.496;13.482;2022-10-23T00:03:40;101452.78;;;13.55;100.00
53932;BME280;39844;52.496;13.482;2022-10-23T00:06:06;101454.56;;;13.53;100.00
53932;BME280;39844;52.496;13.482;2022-10-23T00:08:32;101454.56;;;13.50;100.00
53932;BME280;39844;52.496;13.482;2022-10-23T00:10:57;101457.22;;;13.49;100.00
53932;BME280;39844;52.496;13.482;2022-10-23T00:13:22;101456.38;;;13.47;100.00
53932;BME280;39844;52.496;13.482;2022-10-23T00:15:47;101456.34;;;13.45;100.00
53932;BME280;39844;52.496;13.482;2022-10-23T00:18:13;101452.88;;;13.45;100.00
53932;BME280;39844;52.496;13.482;2022-10-23T00:20:38;101459.00;;;13.44;100.00
53932;BME280;39844;52.496;13.482;2022-10-23T00:23:03;101462.53;;;13.41;100.00
53932;BME280;39844;52.496;13.482;2022-10-23T00:25:29;101473.09;;;13.40;100.00
53932;BME280;39844;52.496;13.482;2022-10-23T00:27:54;101468.69;;;13.39;100.00
53932;BME280;39844;52.496;13.482;2022-10-23T00:30:19;101474.00;;;13.37;100.00
53932;BME280;39844;52.496;13.482;2022-10-23T00:32:44;101477.50;;;13.36;100.00
53932;BME280;39844;52.496;13.482;2022-10-23T00:35:10;101479.25;;;13.32;100.00
53932;BME280;39844;52.496;13.482;2022-10-23T00:37:35;101483.69;;;13.32;100.00
53932;BME280;39844;52.496;13.482;2022-10-23T00:40:00;101488.94;;;13.34;100.00
53932;BME280;39844;52.496;13.482;2022-10-23T00:42:26;101481.03;;;13.32;100.00
53932;BME280;39844;52.496;13.482;2022-10-23T00:47:16;101483.69;;;13.32;100.00
53932;BME280;39844;52.496;13.482;2022-10-23T00:49:42;101485.41;;;13.33;100.00
53932;BME280;39844;52.496;13.482;2022-10-23T00:52:09;101480.16;;;13.33;100.00
53932;BME280;39844;52.496;13.482;2022-10-23T00:54:39;101484.53;;;13.34;100.00
53932;BME280;39844;52.496;13.482;2022-10-23T00:57:08;101478.38;;;13.35;100.00
53932;BME280;39844;52.496;13.482;2022-10-23T00:59:35;101480.13;;;13.38;100.00
53932;BME280;39844;52.496;13.482;2022-10-23T01:02:01;101481.00;;;13.38;100.00
53932;BME280;39844;52.496;13.482;2022-10-23T01:04:27;101479.25;;;13.39;100.00
53932;BME280;39844;52.496;13.482;2022-10-23T01:07:00;101483.66;;;13.38;100.00
53932;BME280;39844;52.496;13.482;2022-10-23T01:09:44;101492.41;;;13.40;100.00
53932;BME280;39844;52.496;13.482;2022-10-23T01:15:19;101479.22;;;13.43;100.00
53932;BME280;39844;52.496;13.482;2022-10-23T01:17:56;101474.84;;;13.44;100.00
53932;BME280;39844;52.496;13.482;2022-10-23T01:20:25;101481.00;;;13.44;100.00
53932;BME280;39844;52.496;13.482;2022-10-23T01:26:06;101481.88;;;13.40;100.00
53932;BME280;39844;52.496;13.482;2022-10-23T01:31:03;101488.91;;;13.35;100.00
53932;BME280;39844;52.496;13.482;2022-10-23T01:33:47;101480.16;;;13.30;100.00
53932;BME280;39844;52.496;13.482;2022-10-23T01:36:16;101490.72;;;13.27;100.00
53932;BME280;39844;52.496;13.482;2022-10-23T01:39:11;101491.59;;;13.23;100.00
53932;BME280;39844;52.496;13.482;2022-10-23T01:41:49;101488.09;;;13.18;100.00
53932;BME280;39844;52.496;13.482;2022-10-23T01:44:23;101487.22;;;13.16;100.00
53932;BME280;39844;52.496;13.482;2022-10-23T01:46:52;101493.38;;;13.13;100.00
53932;BME280;39844;52.496;13.482;2022-10-23T01:49:19;101490.72;;;13.12;100.00
53932;BME280;39844;52.496;13.482;2022-10-23T01:51:48;101496.91;;;13.11;100.00
53932;BME280;39844;52.496;13.482;2022-10-23T01:54:15;101495.13;;;13.10;100.00
53932;BME280;39844;52.496;13.482;2022-10-23T01:56:44;101493.41;;;13.09;100.00
53932;BME280;39844;52.496;13.482;2022-10-23T01:59:13;101492.50;;;13.08;100.00
53932;BME280;39844;52.496;13.482;2022-10-23T02:01:42;101492.50;;;13.07;100.00
53932;BME280;39844;52.496;13.482;2022-10-23T02:04:13;101487.22;;;13.05;100.00
53932;BME280;39844;52.496;13.482;2022-10-23T02:06:40;101488.09;;;13.03;100.00
53932;BME280;39844;52.496;13.482;2022-10-23T02:09:05;101484.59;;;13.01;100.00
53932;BME280;39844;52.496;13.482;2022-10-23T02:11:35;101484.59;;;12.98;100.00
53932;BME280;39844;52.496;13.482;2022-10-23T02:14:07;101481.94;;;12.95;100.00
53932;BME280;39844;52.496;13.482;2022-10-23T02:19:33;101477.56;;;12.91;100.00
53932;BME280;39844;52.496;13.482;2022-10-23T02:27:44;101483.72;;;12.91;100.00
53932;BME280;39844;52.496;13.482;2022-10-23T02:30:13;101485.47;;;12.89;100.00
53932;BME280;39844;52.496;13.482;2022-10-23T02:32:43;101489.00;;;12.90;100.00
53932;BME280;39844;52.496;13.482;2022-10-23T02:35:11;101479.34;;;12.89;100.00
53932;BME280;39844;52.496;13.482;2022-10-23T02:37:36;101475.81;;;12.90;100.00
53932;BME280;39844;52.496;13.482;2022-10-23T02:40:02;101479.34;;;12.89;100.00
53932;BME280;39844;52.496;13.482;2022-10-23T02:42:33;101475.81;;;12.87;100.00
53932;BME280;39844;52.496;13.482;2022-10-23T02:55:58;101481.13;;;12.65;100.00
53932;BME280;39844;52.496;13.482;2022-10-23T03:01:17;101489.88;;;12.52;100.00
53932;BME280;39844;52.496;13.482;2022-10-23T03:03:54;101487.25;;;12.46;100.00
53932;BME280;39844;52.496;13.482;2022-10-23T03:06:22;101482.88;;;12.42;100.00
53932;BME280;39844;52.496;13.482;2022-10-23T03:08:59;101474.09;;;12.37;100.00
53932;BME280;39844;52.496;13.482;2022-10-23T03:11:24;101471.44;;;12.30;100.00
53932;BME280;39844;52.496;13.482;2022-10-23T03:13:50;101470.56;;;12.25;100.00
53932;BME280;39844;52.496;13.482;2022-10-23T03:16:15;101470.53;;;12.16;100.00
53932;BME280;39844;52.496;13.482;2022-10-23T03:18:40;101475.78;;;12.11;100.00
53932;BME280;39844;52.496;13.482;2022-10-23T03:21:06;101466.16;;;12.07;100.00
53932;BME280;39844;52.496;13.482;2022-10-23T03:23:31;101463.47;;;12.02;100.00
53932;BME280;39844;52.496;13.482;2022-10-23T03:25:57;101480.16;;;12.01;100.00
53932;BME280;39844;52.496;13.482;2022-10-23T03:28:22;101480.16;;;11.98;100.00
53932;BME280;39844;52.496;13.482;2022-10-23T03:30:47;101480.16;;;11.98;100.00
53932;BME280;39844;52.496;13.482;2022-10-23T03:33:13;101482.81;;;11.97;100.00
53932;BME280;39844;52.496;13.482;2022-10-23T03:35:38;101481.88;;;11.95;100.00
53932;BME280;39844;52.496;13.482;2022-10-23T03:38:03;101479.25;;;11.95;100.00
53932;BME280;39844;52.496;13.482;2022-10-23T03:40:29;101485.38;;;11.92;100.00
53932;BME280;39844;52.496;13.482;2022-10-23T03:42:54;101479.25;;;11.89;100.00
53932;BME280;39844;52.496;13.482;2022-10-23T03:45:19;101484.50;;;11.84;100.00
53932;BME280;39844;52.496;13.482;2022-10-23T03:47:45;101485.38;;;11.80;100.00
53932;BME280;39844;52.496;13.482;2022-10-23T03:50:11;101489.75;;;11.77;100.00
53932;BME280;39844;52.496;13.482;2022-10-23T03:52:37;101484.44;;;11.72;100.00
53932;BME280;39844;52.496;13.482;2022-10-23T03:55:03;101480.06;;;11.70;100.00
53932;BME280;39844;52.496;13.482;2022-10-23T03:57:29;101483.53;;;11.64;100.00
53932;BME280;39844;52.496;13.482;2022-10-23T03:59:55;101487.03;;;11.63;100.00
53932;BME280;39844;52.496;13.482;2022-10-23T04:02:20;101497.56;;;11.62;100.00
53932;BME280;39844;52.496;13.482;2022-10-23T04:04:45;101495.78;;;11.59;100.00
53932;BME280;39844;52.496;13.482;2022-10-23T04:07:11;101485.25;;;11.56;100.00
53932;BME280;39844;52.496;13.482;2022-10-23T04:09:36;101501.88;;;11.51;100.00
53932;BME280;39844;52.496;13.482;2022-10-23T04:12:01;101493.97;;;11.48;100.00
53932;BME280;39844;52.496;13.482;2022-10-23T04:14:27;101500.94;;;11.44;100.00
53932;BME280;39844;52.496;13.482;2022-10-23T04:16:52;101494.81;;;11.40;100.00
53932;BME280;39844;52.496;13.482;2022-10-23T04:19:17;101494.78;;;11.37;100.00
53932;BME280;39844;52.496;13.482;2022-10-23T04:21:43;101502.66;;;11.34;100.00
53932;BME280;39844;52.496;13.482;2022-10-23T04:24:08;101497.38;;;11.31;100.00
53932;BME280;39844;52.496;13.482;2022-10-23T04:26:34;101507.91;;;11.28;100.00
53932;BME280;39844;52.496;13.482;2022-10-23T04:28:59;101499.09;;;11.23;100.00
53932;BME280;39844;52.496;13.482;2022-10-23T04:31:24;101491.22;;;11.20;100.00
53932;BME280;39844;52.496;13.482;2022-10-23T04:33:50;101481.53;;;11.16;100.00
53932;BME280;39844;52.496;13.482;2022-10-23T04:36:15;101485.91;;;11.14;100.00
53932;BME280;39844;52.496;13.482;2022-10-23T04:38:40;101489.38;;;11.10;100.00
53932;BME280;39844;52.496;13.482;2022-10-23T04:41:06;101485.88;;;11.08;100.00
53932;BME280;39844;52.496;13.482;2022-10-23T04:43:31;101491.13;;;11.05;100.00
53932;BME280;39844;52.496;13.482;2022-10-23T04:45:57;101491.09;;;11.02;100.00
53932;BME280;39844;52.496;13.482;2022-10-23T04:48:22;101490.22;;;11.00;100.00
53932;BME280;39844;52.496;13.482;2022-10-23T04:51:01;101491.03;;;10.96;100.00
53932;BME280;39844;52.496;13.482;2022-10-23T04:53:28;101494.53;;;10.92;100.00
53932;BME280;39844;52.496;13.482;2022-10-23T04:55:55;101496.25;;;10.90;100.00
53932;BME280;39844;52.496;13.482;2022-10-23T04:58:22;101494.50;;;10.89;100.00
53932;BME280;39844;52.496;13.482;2022-10-23T05:00:48;101502.38;;;10.89;100.00
53932;BME280;39844;52.496;13.482;2022-10-23T05:03:15;101510.22;;;10.86;100.00
53932;BME280;39844;52.496;13.482;2022-10-23T05:05:41;101504.97;;;10.85;100.00
53932;BME280;39844;52.496;13.482;2022-10-23T05:08:06;101503.19;;;10.80;100.00
53932;BME280;39844;52.496;13.482;2022-10-23T05:10:31;101500.53;;;10.76;100.00
53932;BME280;39844;52.496;13.482;2022-10-23T05:12:57;101497.00;;;10.72;100.00
53932;BME280;39844;52.496;13.482;2022-10-23T05:15:22;101495.25;;;10.70;100.00
53932;BME280;39844;52.496;13.482;2022-10-23T05:17:50;101491.69;;;10.68;100.00
53932;BME280;39844;52.496;13.482;2022-10-23T05:20:22;101493.44;;;10.64;100.00
53932;BME280;39844;52.496;13.482;2022-10-23T05:22:50;101500.44;;;10.62;100.00
53932;BME280;39844;52.496;13.482;2022-10-23T05:25:17;101494.25;;;10.60;100.00
53932;BME280;39844;52.496;13.482;2022-10-23T05:27:42;101496.88;;;10.59;100.00
53932;BME280;39844;52.496;13.482;2022-10-23T05:30:08;101499.50;;;10.59;100.00
53932;BME280;39844;52.496;13.482;2022-10-23T05:32:34;101496.03;;;10.60;100.00
53932;BME280;39844;52.496;13.482;2022-10-23T05:35:02;101499.50;;;10.60;100.00
53932;BME280;39844;52.496;13.482;2022-10-23T05:37:30;101494.25;;;10.59;100.00
53932;BME280;39844;52.496;13.482;2022-10-23T05:39:56;101507.38;;;10.59;100.00
53932;BME280;39844;52.496;13.482;2022-10-23T05:42:21;101509.13;;;10.57;100.00
53932;BME280;39844;52.496;13.482;2022-10-23T05:44:46;101508.25;;;10.58;100.00
53932;BME280;39844;52.496;13.482;2022-10-23T05:47:12;101505.66;;;10.59;100.00
53932;BME280;39844;52.496;13.482;2022-10-23T05:49:37;101503.03;;;10.61;100.00
53932;BME280;39844;52.496;13.482;2022-10-23T05:52:02;101501.28;;;10.60;100.00
53932;BME280;39844;52.496;13.482;2022-10-23T05:54:27;101505.63;;;10.58;100.00
53932;BME280;39844;52.496;13.482;2022-10-23T05:56:54;101507.34;;;10.56;100.00
53932;BME280;39844;52.496;13.482;2022-10-23T05:59:19;101518.75;;;10.55;100.00
53932;BME280;39844;52.496;13.482;2022-10-23T06:01:44;101510.84;;;10.53;100.00
53932;BME280;39844;52.496;13.482;2022-10-23T06:04:10;101511.72;;;10.54;100.00
53932;BME280;39844;52.496;13.482;2022-10-23T06:06:35;101514.34;;;10.52;100.00
53932;BME280;39844;52.496;13.482;2022-10-23T06:09:01;101508.22;;;10.52;100.00
53932;BME280;39844;52.496;13.482;2022-10-23T06:11:27;101508.19;;;10.50;100.00
53932;BME280;39844;52.496;13.482;2022-10-23T06:13:52;101502.94;;;10.50;100.00
53932;BME280;39844;52.496;13.482;2022-10-23T06:16:21;101500.31;;;10.50;100.00
53932;BME280;39844;52.496;13.482;2022-10-23T06:18:48;101508.22;;;10.52;100.00
53932;BME280;39844;52.496;13.482;2022-10-23T06:21:14;101499.44;;;10.50;100.00
53932;BME280;39844;52.496;13.482;2022-10-23T06:23:41;101500.31;;;10.47;100.00
53932;BME280;39844;52.496;13.482;2022-10-23T06:26:08;101498.53;;;10.48;100.00
53932;BME280;39844;52.496;13.482;2022-10-23T06:28:34;101503.78;;;10.48;100.00
53932;BME280;39844;52.496;13.482;2022-10-23T06:31:05;101500.31;;;10.49;100.00
53932;BME280;39844;52.496;13.482;2022-10-23T06:33:31;101502.97;;;10.52;100.00
53932;BME280;39844;52.496;13.482;2022-10-23T06:35:56;101503.00;;;10.55;100.00
53932;BME280;39844;52.496;13.482;2022-10-23T06:38:21;101500.38;;;10.56;100.00
53932;BME280;39844;52.496;13.482;2022-10-23T06:40:54;101505.66;;;10.61;100.00
53932;BME280;39844;52.496;13.482;2022-10-23T06:43:19;101502.19;;;10.65;100.00
53932;BME280;39844;52.496;13.482;2022-10-23T06:45:45;101505.75;;;10.70;100.00
53932;BME280;39844;52.496;13.482;2022-10-23T06:48:11;101502.25;;;10.74;100.00
53932;BME280;39844;52.496;13.482;2022-10-23T06:50:37;101504.94;;;10.80;100.00
53932;BME280;39844;52.496;13.482;2022-10-23T06:53:03;101513.75;;;10.85;100.00
53932;BME280;39844;52.496;13.482;2022-10-23T06:55:30;101522.53;;;10.90;100.00
53932;BME280;39844;52.496;13.482;2022-10-23T06:57:55;101513.75;;;10.91;100.00
53932;BME280;39844;52.496;13.482;2022-10-23T07:00:21;101526.09;;;10.98;100.00
53932;BME280;39844;52.496;13.482;2022-10-23T07:02:46;101520.88;;;11.04;100.00
53932;BME280;39844;52.496;13.482;2022-10-23T07:05:11;101514.78;;;11.11;100.00
53932;BME280;39844;52.496;13.482;2022-10-23T07:07:37;101520.09;;;11.16;100.00
53932;BME280;39844;52.496;13.482;2022-10-23T07:10:03;101527.09;;;11.21;100.00
53932;BME280;39844;52.496;13.482;2022-10-23T07:12:29;101519.28;;;11.27;100.00
53932;BME280;39844;52.496;13.482;2022-10-23T07:14:54;101512.28;;;11.34;100.00
53932;BME280;39844;52.496;13.482;2022-10-23T07:17:19;101507.06;;;11.40;100.00
53932;BME280;39844;52.496;13.482;2022-10-23T07:19:45;101508.88;;;11.46;100.00
53932;BME280;39844;52.496;13.482;2022-10-23T07:22:11;101516.78;;;11.52;100.00
53932;BME280;39844;52.496;13.482;2022-10-23T07:24:36;101509.81;;;11.57;100.00
53932;BME280;39844;52.496;13.482;2022-10-23T07:27:03;101513.31;;;11.63;100.00
53932;BME280;39844;52.496;13.482;2022-10-23T07:29:29;101514.25;;;11.68;100.00
53932;BME280;39844;52.496;13.482;2022-10-23T07:31:54;101516.91;;;11.76;100.00
53932;BME280;39844;52.496;13.482;2022-10-23T07:34:20;101522.22;;;11.82;100.00
53932;BME280;39844;52.496;13.482;2022-10-23T07:36:45;101512.56;;;11.90;100.00
53932;BME280;39844;52.496;13.482;2022-10-23T07:39:10;101519.63;;;11.97;100.00
53932;BME280;39844;52.496;13.482;2022-10-23T07:41:36;101516.13;;;12.01;100.00
53932;BME280;39844;52.496;13.482;2022-10-23T07:44:01;101515.25;;;12.08;100.00
53932;BME280;39844;52.496;13.482;2022-10-23T07:46:26;101510.00;;;12.16;100.00
53932;BME280;39844;52.496;13.482;2022-10-23T07:48:52;101512.69;;;12.20;100.00
53932;BME280;39844;52.496;13.482;2022-10-23T07:51:17;101507.41;;;12.26;100.00
53932;BME280;39844;52.496;13.482;2022-10-23T07:53:42;101504.78;;;12.34;100.00
53932;BME280;39844;52.496;13.482;2022-10-23T07:56:14;101504.81;;;12.40;100.00
53932;BME280;39844;52.496;13.482;2022-10-23T07:58:39;101510.06;;;12.44;100.00
53932;BME280;39844;52.496;13.482;2022-10-23T08:01:14;101507.44;;;12.50;100.00
53932;BME280;39844;52.496;13.482;2022-10-23T08:03:40;101516.22;;;12.58;100.00
53932;BME280;39844;52.496;13.482;2022-10-23T08:06:06;101505.69;;;12.64;100.00
53932;BME280;39844;52.496;13.482;2022-10-23T08:08:31;101502.19;;;12.68;100.00
53932;BME280;39844;52.496;13.482;2022-10-23T08:10:56;101503.06;;;12.75;100.00
53932;BME280;39844;52.496;13.482;2022-10-23T08:13:22;101507.44;;;12.78;100.00
53932;BME280;39844;52.496;13.482;2022-10-23T08:15:49;101496.91;;;12.81;100.00
53932;BME280;39844;52.496;13.482;2022-10-23T08:18:15;101497.78;;;12.83;100.00
53932;BME280;39844;52.496;13.482;2022-10-23T08:20:41;101496.88;;;12.87;100.00
53932;BME280;39844;52.496;13.482;2022-10-23T08:23:08;101495.16;;;12.86;100.00
53932;BME280;39844;52.496;13.482;2022-10-23T08:25:33;101498.66;;;12.91;100.00
53932;BME280;39844;52.496;13.482;2022-10-23T08:27:59;101496.91;;;12.96;100.00
53932;BME280;39844;52.496;13.482;2022-10-23T08:30:25;101507.44;;;12.99;100.00
53932;BME280;39844;52.496;13.482;2022-10-23T08:32:50;101507.41;;;13.02;100.00
53932;BME280;39844;52.496;13.482;2022-10-23T08:35:16;101501.28;;;13.06;100.00
53932;BME280;39844;52.496;13.482;2022-10-23T08:37:41;101506.56;;;13.10;100.00
53932;BME280;39844;52.496;13.482;2022-10-23T08:40:08;101498.63;;;13.15;100.00
53932;BME280;39844;52.496;13.482;2022-10-23T08:42:36;101500.41;;;13.20;100.00
53932;BME280;39844;52.496;13.482;2022-10-23T08:45:05;101499.53;;;13.24;100.00
53932;BME280;39844;52.496;13.482;2022-10-23T08:47:51;101489.81;;;13.28;100.00
53932;BME280;39844;52.496;13.482;2022-10-23T08:50:29;101487.16;;;13.32;100.00
53932;BME280;39844;52.496;13.482;2022-10-23T08:53:03;101495.09;;;13.37;100.00
53932;BME280;39844;52.496;13.482;2022-10-23T08:55:41;101494.16;;;13.43;100.00
53932;BME280;39844;52.496;13.482;2022-10-23T08:58:28;101491.53;;;13.47;100.00
53932;BME280;39844;52.496;13.482;2022-10-23T09:00:57;101491.50;;;13.55;100.00
53932;BME280;39844;52.496;13.482;2022-10-23T09:03:23;101495.88;;;13.60;100.00
53932;BME280;39844;52.496;13.482;2022-10-23T09:06:07;101494.09;;;13.67;100.00
53932;BME280;39844;52.496;13.482;2022-10-23T09:08:52;101489.66;;;13.70;100.00
53932;BME280;39844;52.496;13.482;2022-10-23T09:17:24;101490.44;;;13.92;100.00
53932;BME280;39844;52.496;13.482;2022-10-23T09:20:00;101481.63;;;13.98;100.00
53932;BME280;39844;52.496;13.482;2022-10-23T09:22:31;101489.50;;;14.04;100.00
53932;BME280;39844;52.496;13.482;2022-10-23T09:24:56;101478.03;;;14.09;100.00
53932;BME280;39844;52.496;13.482;2022-10-23T09:27:22;101482.38;;;14.16;100.00
53932;BME280;39844;52.496;13.482;2022-10-23T09:29:49;101482.31;;;14.24;100.00
53932;BME280;39844;52.496;13.482;2022-10-23T09:32:15;101477.00;;;14.31;100.00
53932;BME280;39844;52.496;13.482;2022-10-23T09:34:53;101475.19;;;14.39;100.00
53932;BME280;39844;52.496;13.482;2022-10-23T09:37:23;101476.94;;;14.45;100.00
53932;BME280;39844;52.496;13.482;2022-10-23T09:40:00;101475.09;;;14.53;98.79
53932;BME280;39844;52.496;13.482;2022-10-23T09:42:26;101483.88;;;14.58;97.31
53932;BME280;39844;52.496;13.482;2022-10-23T09:44:53;101480.28;;;14.67;97.14
53932;BME280;39844;52.496;13.482;2022-10-23T09:47:21;101469.66;;;14.74;96.53
53932;BME280;39844;52.496;13.482;2022-10-23T09:49:50;101477.50;;;14.80;95.61
53932;BME280;39844;52.496;13.482;2022-10-23T09:54:59;101474.75;;;14.94;94.35
53932;BME280;39844;52.496;13.482;2022-10-23T09:57:33;101467.59;;;15.00;93.14
53932;BME280;39844;52.496;13.482;2022-10-23T10:02:40;101466.59;;;15.13;92.01
53932;BME280;39844;52.496;13.482;2022-10-23T10:08:09;101457.66;;;15.25;91.23
53932;BME280;39844;52.496;13.482;2022-10-23T10:10:42;101454.03;;;15.34;90.39
53932;BME280;39844;52.496;13.482;2022-10-23T10:15:57;101445.94;;;15.49;89.61
53932;BME280;39844;52.496;13.482;2022-10-23T10:18:31;101445.88;;;15.55;88.93
53932;BME280;39844;52.496;13.482;2022-10-23T10:21:20;101444.91;;;15.60;88.28
53932;BME280;39844;52.496;13.482;2022-10-23T10:26:29;101445.59;;;15.76;87.73
53932;BME280;39844;52.496;13.482;2022-10-23T10:35:18;101440.81;;;16.01;85.51
53932;BME280;39844;52.496;13.482;2022-10-23T10:40:30;101435.31;;;16.13;84.58
53932;BME280;39844;52.496;13.482;2022-10-23T10:46:31;101433.34;;;16.27;83.57
53932;BME280;39844;52.496;13.482;2022-10-23T10:51:42;101417.25;;;16.39;82.39
53932;BME280;39844;52.496;13.482;2022-10-23T10:54:38;101418.84;;;16.49;81.16
53932;BME280;39844;52.496;13.482;2022-10-23T10:57:26;101420.56;;;16.55;80.96
53932;BME280;39844;52.496;13.482;2022-10-23T10:59:54;101415.13;;;16.62;81.31
53932;BME280;39844;52.496;13.482;2022-10-23T11:02:38;101409.69;;;16.70;80.92
53932;BME280;39844;52.496;13.482;2022-10-23T11:05:28;101406.78;;;16.82;80.96
53932;BME280;39844;52.496;13.482;2022-10-23T11:08:16;101396.88;;;16.91;80.80
53932;BME280;39844;52.496;13.482;2022-10-23T11:10:45;101400.25;;;16.99;80.25
53932;BME280;39844;52.496;13.482;2022-10-23T11:13:34;101393.94;;;17.06;80.40
53932;BME280;39844;52.496;13.482;2022-10-23T11:16:09;101387.56;;;17.15;80.12
53932;BME280;39844;52.496;13.482;2022-10-23T11:18:36;101383.78;;;17.27;79.96
53932;BME280;39844;52.496;13.482;2022-10-23T11:32:10;101362.25;;;17.82;77.21
53932;BME280;39844;52.496;13.482;2022-10-23T11:37:25;101351.19;;;18.00;76.22
53932;BME280;39844;52.496;13.482;2022-10-23T11:40:00;101347.41;;;18.08;75.79
53932;BME280;39844;52.496;13.482;2022-10-23T11:45:01;101338.63;;;18.40;74.70
53932;BME280;39844;52.496;13.482;2022-10-23T11:47:33;101334.31;;;18.70;74.75
53932;BME280;39844;52.496;13.482;2022-10-23T11:52:31;101323.00;;;19.23;72.23
53932;BME280;39844;52.496;13.482;2022-10-23T11:55:22;101324.19;;;19.44;71.83
53932;BME280;39844;52.496;13.482;2022-10-23T12:00:38;101308.56;;;19.87;69.34
53932;BME280;39844;52.496;13.482;2022-10-23T12:03:16;101305.66;;;19.95;67.32
53932;BME280;39844;52.496;13.482;2022-10-23T12:05:43;101306.28;;;20.03;67.19
53932;BME280;39844;52.496;13.482;2022-10-23T12:08:21;101301.56;;;20.11;66.71
53932;BME280;39844;52.496;13.482;2022-10-23T12:10:48;101302.50;;;20.36;66.37
53932;BME280;39844;52.496;13.482;2022-10-23T12:16:04;101307.16;;;20.79;63.20
53932;BME280;39844;52.496;13.482;2022-10-23T12:18:31;101292.59;;;20.88;62.85
53932;BME280;39844;52.496;13.482;2022-10-23T12:20:59;101293.19;;;20.96;62.78
53932;BME280;39844;52.496;13.482;2022-10-23T12:23:47;101293.34;;;20.91;63.08
53932;BME280;39844;52.496;13.482;2022-10-23T12:32:02;101277.78;;;20.56;62.46
53932;BME280;39844;52.496;13.482;2022-10-23T12:34:45;101271.91;;;20.46;62.79
53932;BME280;39844;52.496;13.482;2022-10-23T12:40:08;101268.91;;;20.31;63.90
53932;BME280;39844;52.496;13.482;2022-10-23T12:42:34;101265.75;;;20.18;64.30
53932;BME280;39844;52.496;13.482;2022-10-23T12:45:15;101260.91;;;20.04;64.69
53932;BME280;39844;52.496;13.482;2022-10-23T12:47:43;101265.63;;;19.96;65.18
53932;BME280;39844;52.496;13.482;2022-10-23T12:50:35;101268.69;;;19.84;65.51
53932;BME280;39844;52.496;13.482;2022-10-23T12:53:05;101261.13;;;19.72;66.54
53932;BME280;39844;52.496;13.482;2022-10-23T12:55:52;101247.25;;;19.61;66.61
53932;BME280;39844;52.496;13.482;2022-10-23T12:58:26;101252.81;;;19.55;66.84
53932;BME280;39844;52.496;13.482;2022-10-23T13:00:56;101237.94;;;19.48;67.27
53932;BME280;39844;52.496;13.482;2022-10-23T13:03:23;101240.81;;;19.42;67.66
53932;BME280;39844;52.496;13.482;2022-10-23T13:05:51;101241.78;;;19.39;68.11
53932;BME280;39844;52.496;13.482;2022-10-23T13:08:18;101235.63;;;19.36;68.67
53932;BME280;39844;52.496;13.482;2022-10-23T13:10:45;101231.34;;;19.32;68.10
53932;BME280;39844;52.496;13.482;2022-10-23T13:13:11;101226.25;;;19.24;68.06
53932;BME280;39844;52.496;13.482;2022-10-23T13:15:40;101214.81;;;19.21;68.94
53932;BME280;39844;52.496;13.482;2022-10-23T13:18:06;101210.56;;;19.15;68.79
53932;BME280;39844;52.496;13.482;2022-10-23T13:20:35;101211.53;;;19.13;68.93
53932;BME280;39844;52.496;13.482;2022-10-23T13:28:24;101199.72;;;18.93;69.22
53932;BME280;39844;52.496;13.482;2022-10-23T13:33:47;101199.88;;;18.87;69.88
53932;BME280;39844;52.496;13.482;2022-10-23T13:41:37;101205.78;;;18.99;69.37
53932;BME280;39844;52.496;13.482;2022-10-23T13:44:03;101201.94;;;19.07;70.24
53932;BME280;39844;52.496;13.482;2022-10-23T13:46:28;101201.03;;;19.08;69.22
53932;BME280;39844;52.496;13.482;2022-10-23T13:48:54;101190.31;;;19.10;69.01
53932;BME280;39844;52.496;13.482;2022-10-23T13:51:22;101189.41;;;19.11;69.42
53932;BME280;39844;52.496;13.482;2022-10-23T13:53:48;101185.13;;;19.07;68.89
53932;BME280;39844;52.496;13.482;2022-10-23T13:56:15;101187.06;;;19.02;68.58
53932;BME280;39844;52.496;13.482;2022-10-23T13:58:41;101189.75;;;19.00;69.63
53932;BME280;39844;52.496;13.482;2022-10-23T14:01:17;101184.50;;;18.97;70.19
53932;BME280;39844;52.496;13.482;2022-10-23T14:03:44;101186.41;;;18.93;70.61
53932;BME280;39844;52.496;13.482;2022-10-23T14:06:09;101190.03;;;18.91;71.37
53932;BME280;39844;52.496;13.482;2022-10-23T14:08:34;101175.03;;;18.88;71.30
53932;BME280;39844;52.496;13.482;2022-10-23T14:11:00;101173.38;;;18.84;71.27
53932;BME280;39844;52.496;13.482;2022-10-23T14:13:25;101173.59;;;18.78;71.23
53932;BME280;39844;52.496;13.482;2022-10-23T14:15:54;101179.06;;;18.72;70.99
53932;BME280;39844;52.496;13.482;2022-10-23T14:18:20;101178.34;;;18.67;71.37
53932;BME280;39844;52.496;13.482;2022-10-23T14:20:45;101180.34;;;18.59;71.63
53932;BME280;39844;52.496;13.482;2022-10-23T14:23:11;101177.97;;;18.50;71.36
53932;BME280;39844;52.496;13.482;2022-10-23T14:25:37;101175.50;;;18.43;71.77
53932;BME280;39844;52.496;13.482;2022-10-23T14:28:02;101173.06;;;18.35;72.15
53932;BME280;39844;52.496;13.482;2022-10-23T14:30:28;101169.69;;;18.30;72.03
53932;BME280;39844;52.496;13.482;2022-10-23T14:32:53;101164.44;;;18.27;72.36
53932;BME280;39844;52.496;13.482;2022-10-23T14:35:18;101164.44;;;18.27;72.36